Time;durP1;ratioP1;P1;durP2;ratioP2;P2;SDS_P1;SDS_P2;PMS_P1;PMS_P2;Temp;Humidity;BMP_temperature;BMP_pressure;BME280_temperature;BME280_humidity;BME280_pressure;Samples;Min_cycle;Max_cycle;Signal;HPM_P1;HPM_P2
2023/07/19 00:00:39;;;;;;;10.85;3.45;;;;;;;25.60;47.74;100513.53;5050522;28;20044;-83
2023/07/19 00:03:04;;;;;;;10.35;3.55;;;;;;;25.49;47.89;100498.59;5050508;28;20592;-84
2023/07/19 00:05:30;;;;;;;10.40;3.72;;;;;;;25.45;48.27;100494.56;5049780;28;20025;-84
2023/07/19 00:07:56;;;;;;;8.40;3.97;;;;;;;25.60;48.30;100513.53;5050317;28;20025;-83
2023/07/19 00:10:21;;;;;;;4.95;3.10;;;;;;;25.48;48.42;100498.75;5049788;28;20057;-84
2023/07/19 00:12:47;;;;;;;10.32;3.97;;;;;;;25.25;49.11;100491.97;5050186;28;20047;-85
2023/07/19 00:15:12;;;;;;;8.63;3.53;;;;;;;25.28;49.09;100494.28;5050404;28;20036;-85
2023/07/19 00:17:38;;;;;;;5.78;3.60;;;;;;;25.33;48.77;100501.84;5049589;28;20028;-84
2023/07/19 00:20:04;;;;;;;7.22;3.72;;;;;;;25.34;48.56;100498.06;5049321;28;20564;-85
2023/07/19 00:22:31;;;;;;;12.45;4.00;;;;;;;25.41;48.45;100504.34;5050827;28;20017;-85
2023/07/19 00:24:56;;;;;;;11.45;3.75;;;;;;;25.31;48.89;100507.59;5050930;28;20416;-86
2023/07/19 00:27:22;;;;;;;18.58;4.13;;;;;;;25.26;49.30;100484.53;5050553;28;20029;-84
2023/07/19 00:29:47;;;;;;;13.57;4.20;;;;;;;25.27;49.99;100489.84;5054214;28;20025;-85
2023/07/19 00:32:13;;;;;;;6.32;3.60;;;;;;;25.35;50.04;100488.72;5061558;28;20078;-84
2023/07/19 00:34:38;;;;;;;7.47;4.65;;;;;;;25.26;50.96;100462.50;5063456;28;20028;-85
2023/07/19 00:37:04;;;;;;;9.95;4.63;;;;;;;25.37;51.60;100479.16;5075337;28;20108;-87
2023/07/19 00:39:30;;;;;;;16.02;5.68;;;;;;;25.30;52.08;100459.09;5075706;28;20021;-86
2023/07/19 00:41:57;;;;;;;8.93;4.95;;;;;;;25.35;52.77;100472.22;5074308;28;20421;-86
2023/07/19 00:44:22;;;;;;;16.42;4.97;;;;;;;25.31;53.42;100459.94;5064990;28;20017;-84
2023/07/19 00:46:48;;;;;;;10.52;4.95;;;;;;;25.15;53.54;100443.97;5063499;28;20025;-85
2023/07/19 00:49:14;;;;;;;14.85;5.15;;;;;;;25.24;53.31;100454.50;5060215;28;20044;-84
2023/07/19 00:51:40;;;;;;;10.15;4.22;;;;;;;25.12;53.38;100439.78;5052597;28;20033;-85
2023/07/19 00:54:07;;;;;;;11.90;4.78;;;;;;;25.09;53.17;100431.13;5051293;28;20029;-84
2023/07/19 00:56:33;;;;;;;20.40;6.15;;;;;;;25.02;53.17;100419.31;5059646;28;20029;-84
2023/07/19 00:59:01;;;;;;;13.35;4.75;;;;;;;25.02;53.39;100433.06;5066020;28;20067;-85
2023/07/19 01:01:26;;;;;;;12.82;4.80;;;;;;;24.92;53.60;100421.72;5054216;28;20021;-84
2023/07/19 01:03:52;;;;;;;13.38;4.75;;;;;;;25.03;53.61;100426.50;5048932;28;20037;-85
2023/07/19 01:06:19;;;;;;;12.43;5.35;;;;;;;25.04;53.62;100439.22;5050035;28;20470;-84
2023/07/19 01:08:48;;;;;;;18.98;5.45;;;;;;;25.10;53.54;100443.81;5049338;28;20119;-85
2023/07/19 01:11:13;;;;;;;13.07;4.32;;;;;;;25.15;51.57;100443.97;5049871;28;20032;-85
2023/07/19 01:13:52;;;;;;;18.90;5.03;;;;;;;25.13;51.20;100429.59;5049340;28;20040;-85
2023/07/19 01:16:18;;;;;;;8.98;4.32;;;;;;;25.30;52.19;100437.06;5050058;28;20032;-84
2023/07/19 01:18:44;;;;;;;12.48;5.70;;;;;;;25.43;52.54;100433.38;5049422;28;20033;-84
2023/07/19 01:21:10;;;;;;;16.15;6.10;;;;;;;25.45;52.50;100432.06;5062008;28;20070;-83
2023/07/19 01:23:35;;;;;;;9.57;5.15;;;;;;;25.47;51.77;100420.84;5057788;28;20033;-84
2023/07/19 01:26:01;;;;;;;9.98;6.38;;;;;;;25.53;52.74;100419.97;5049886;28;20163;-83
2023/07/19 01:28:26;;;;;;;20.48;6.35;;;;;;;25.63;52.82;100425.75;5049428;28;20120;-85
2023/07/19 01:30:51;;;;;;;12.98;5.43;;;;;;;25.77;52.44;100435.59;5049598;28;20104;-83
2023/07/19 01:33:17;;;;;;;20.15;6.63;;;;;;;25.64;52.80;100405.44;5048251;28;20032;-84
2023/07/19 01:35:42;;;;;;;9.60;5.65;;;;;;;25.77;53.04;100421.81;5047655;28;20033;-83
2023/07/19 01:38:08;;;;;;;11.95;5.53;;;;;;;25.84;52.59;100411.53;5049488;28;20021;-84
2023/07/19 01:40:33;;;;;;;19.90;6.97;;;;;;;25.77;52.65;100394.28;5048738;28;20025;-85
2023/07/19 01:42:59;;;;;;;22.92;6.57;;;;;;;25.80;52.76;100398.47;5049138;28;20025;-83
2023/07/19 01:45:24;;;;;;;8.35;5.15;;;;;;;25.76;52.99;100406.34;5049267;28;20433;-84
2023/07/19 01:47:49;;;;;;;13.45;5.65;;;;;;;25.71;52.80;100411.72;5029948;28;20037;-83
2023/07/19 01:50:15;;;;;;;12.65;5.72;;;;;;;25.70;53.03;100443.09;5048862;28;20738;-84
2023/07/19 01:52:40;;;;;;;19.80;5.88;;;;;;;25.62;53.23;100448.91;5048708;28;20025;-83
2023/07/19 01:55:06;;;;;;;16.17;6.13;;;;;;;25.55;54.02;100439.00;5048801;28;20033;-86
2023/07/19 01:57:32;;;;;;;18.92;5.80;;;;;;;25.38;54.40;100423.00;5048012;28;20057;-85
2023/07/19 01:59:57;;;;;;;15.32;5.80;;;;;;;25.37;54.56;100412.25;5047191;28;20524;-85
2023/07/19 02:02:23;;;;;;;9.55;6.05;;;;;;;25.34;54.52;100420.94;5048575;28;20037;-86
2023/07/19 02:04:48;;;;;;;14.45;6.57;;;;;;;25.44;54.26;100432.31;5048207;28;20416;-85
2023/07/19 02:07:14;;;;;;;11.57;5.97;;;;;;;25.50;54.39;100447.97;5048718;28;20036;-85
2023/07/19 02:09:40;;;;;;;18.55;5.85;;;;;;;25.44;54.50;100427.63;5048133;28;20028;-84
2023/07/19 02:12:06;;;;;;;11.30;5.63;;;;;;;25.49;54.49;100432.50;5048609;28;20078;-83
2023/07/19 02:14:31;;;;;;;12.57;5.93;;;;;;;25.63;54.57;100442.28;5048203;28;20022;-84
2023/07/19 02:16:57;;;;;;;11.18;7.18;;;;;;;25.60;54.59;100437.25;5048489;28;20032;-85
2023/07/19 02:19:22;;;;;;;12.18;6.93;;;;;;;25.66;54.91;100452.88;5048752;28;20021;-85
2023/07/19 02:21:47;;;;;;;12.18;6.32;;;;;;;25.64;54.90;100460.53;5048938;28;20021;-83
2023/07/19 02:24:13;;;;;;;22.33;7.75;;;;;;;25.65;54.88;100467.72;5048666;28;20483;-86
2023/07/19 02:26:38;;;;;;;20.58;6.90;;;;;;;25.58;54.99;100461.44;5047060;28;20076;-83
2023/07/19 02:29:04;;;;;;;20.50;5.88;;;;;;;25.40;55.88;100475.97;5048391;28;20029;-87
2023/07/19 02:31:29;;;;;;;13.13;5.80;;;;;;;25.09;56.74;100455.88;5047194;28;20033;-84
2023/07/19 02:33:55;;;;;;;11.45;5.97;;;;;;;24.81;59.02;100478.31;5048715;28;20086;-84
2023/07/19 02:36:20;;;;;;;17.88;7.70;;;;;;;24.53;59.49;100467.63;5048245;28;20059;-85
2023/07/19 02:38:46;;;;;;;21.00;7.28;;;;;;;24.54;59.89;100469.31;5046894;28;20025;-84
2023/07/19 02:41:12;;;;;;;11.60;6.00;;;;;;;24.71;59.16;100481.50;5048301;28;20052;-84
2023/07/19 02:43:37;;;;;;;15.73;7.22;;;;;;;24.63;59.01;100473.50;5046986;28;20047;-85
2023/07/19 02:46:02;;;;;;;17.63;6.57;;;;;;;24.64;58.83;100475.22;5048176;28;20458;-84
2023/07/19 02:48:28;;;;;;;28.23;8.07;;;;;;;24.67;59.26;100491.28;5047878;28;20031;-84
2023/07/19 02:50:53;;;;;;;30.42;11.85;;;;;;;24.52;59.09;100474.22;5048234;28;20028;-85
2023/07/19 02:53:19;;;;;;;20.67;7.75;;;;;;;24.63;58.69;100489.16;5047729;28;20059;-84
2023/07/19 02:55:48;;;;;;;17.15;7.13;;;;;;;24.64;58.54;100475.22;5047770;28;20035;-85
2023/07/19 02:58:14;;;;;;;17.77;7.93;;;;;;;24.76;58.34;100480.84;5048235;28;20409;-84
2023/07/19 03:00:41;;;;;;;23.15;7.93;;;;;;;24.77;58.24;100480.59;5048019;28;20112;-85
2023/07/19 03:03:07;;;;;;;19.05;8.18;;;;;;;24.76;58.14;100470.69;5047961;28;20029;-84
2023/07/19 03:05:34;;;;;;;25.25;7.95;;;;;;;24.83;58.12;100479.75;5047666;28;20572;-85
2023/07/19 03:08:01;;;;;;;18.00;7.88;;;;;;;24.86;58.55;100478.50;5053628;28;20076;-86
2023/07/19 03:10:27;;;;;;;23.65;9.07;;;;;;;24.90;58.24;100486.06;5066047;28;20033;-84
2023/07/19 03:12:52;;;;;;;18.33;7.43;;;;;;;24.85;58.50;100463.03;5065369;28;20112;-84
2023/07/19 03:15:18;;;;;;;22.77;7.50;;;;;;;24.90;57.87;100457.72;5066124;28;20075;-84
2023/07/19 03:17:43;;;;;;;19.63;8.93;;;;;;;24.89;57.58;100470.63;5066214;28;20021;-85
2023/07/19 03:20:10;;;;;;;18.35;7.35;;;;;;;24.89;57.66;100467.88;5067587;28;20029;-84
2023/07/19 03:22:35;;;;;;;17.85;7.20;;;;;;;24.94;57.80;100474.63;5066541;28;20047;-83
2023/07/19 03:25:01;;;;;;;14.80;7.55;;;;;;;24.92;57.92;100481.19;5065512;28;20038;-84
2023/07/19 03:27:26;;;;;;;31.65;7.55;;;;;;;24.90;57.97;100487.97;5067573;28;20025;-83
2023/07/19 03:29:52;;;;;;;25.00;6.47;;;;;;;24.88;57.69;100490.97;5063020;28;20025;-86
2023/07/19 03:32:18;;;;;;;18.65;7.03;;;;;;;24.95;57.40;100493.69;5061854;28;20028;-83
2023/07/19 03:34:43;;;;;;;18.63;6.47;;;;;;;24.99;57.00;100492.16;5062523;28;20032;-83
2023/07/19 03:37:08;;;;;;;18.23;6.43;;;;;;;25.01;57.01;100497.44;5070269;28;20060;-84
2023/07/19 03:39:35;;;;;;;15.73;6.80;;;;;;;25.04;56.78;100494.25;5067257;28;20097;-83
2023/07/19 03:42:00;;;;;;;15.00;6.57;;;;;;;25.03;56.80;100482.41;5067691;28;20081;-85
2023/07/19 03:44:25;;;;;;;21.90;7.78;;;;;;;25.02;56.79;100477.94;5062652;28;20040;-86
2023/07/19 03:46:51;;;;;;;14.75;7.13;;;;;;;25.06;56.76;100489.34;5052058;28;20508;-84
2023/07/19 03:49:16;;;;;;;26.58;7.63;;;;;;;25.12;56.54;100488.47;5052749;28;20473;-83
2023/07/19 03:51:42;;;;;;;15.48;6.82;;;;;;;25.13;56.52;100481.91;5051470;28;20029;-84
2023/07/19 03:54:08;;;;;;;26.50;7.50;;;;;;;25.18;56.59;100476.56;5055268;28;21220;-84
2023/07/19 03:56:33;;;;;;;92.55;15.27;;;;;;;25.22;56.37;100472.31;5052700;28;20021;-86
2023/07/19 03:58:58;;;;;;;44.08;11.50;;;;;;;25.33;56.57;100474.31;5051137;28;20102;-83
2023/07/19 04:01:24;;;;;;;48.80;9.15;;;;;;;25.34;56.48;100460.34;5051757;28;20032;-86
2023/07/19 04:03:49;;;;;;;33.95;8.75;;;;;;;25.40;56.26;100458.59;5051371;28;20053;-83
2023/07/19 04:06:15;;;;;;;40.92;9.63;;;;;;;25.35;56.29;100455.69;5051093;28;20029;-86
2023/07/19 04:08:40;;;;;;;27.02;8.38;;;;;;;25.43;56.08;100452.63;5050785;28;20488;-84
2023/07/19 04:11:06;;;;;;;24.17;7.38;;;;;;;25.56;56.12;100471.00;5051003;28;20020;-84
2023/07/19 04:13:31;;;;;;;28.33;8.07;;;;;;;25.57;55.78;100454.22;5051257;28;21167;-84
2023/07/19 04:15:57;;;;;;;27.67;8.23;;;;;;;25.71;55.43;100466.81;5050521;28;20094;-84
2023/07/19 04:18:22;;;;;;;21.40;7.43;;;;;;;25.69;54.74;100457.91;5050645;28;20033;-84
2023/07/19 04:20:58;;;;;;;30.08;7.95;;;;;;;25.83;54.42;100465.00;5049658;28;20154;-84
2023/07/19 04:23:24;;;;;;;28.92;7.05;;;;;;;25.93;54.07;100462.53;5048979;28;20063;-84
2023/07/19 04:25:50;;;;;;;22.88;7.40;;;;;;;25.91;53.89;100450.06;5050290;28;20035;-84
2023/07/19 04:28:16;;;;;;;33.50;8.52;;;;;;;26.01;53.89;100438.50;5050850;28;20485;-85
2023/07/19 04:30:43;;;;;;;28.20;7.40;;;;;;;26.10;53.63;100448.16;5050190;28;20404;-85
2023/07/19 04:33:09;;;;;;;26.90;8.93;;;;;;;26.12;53.75;100444.09;5050098;28;20025;-84
2023/07/19 04:35:34;;;;;;;32.35;8.57;;;;;;;26.07;54.42;100438.44;5050318;28;20017;-84
2023/07/19 04:38:00;;;;;;;31.08;9.35;;;;;;;26.14;54.36;100450.22;5050759;28;20017;-84
2023/07/19 04:40:25;;;;;;;31.83;8.13;;;;;;;26.17;54.31;100449.81;5049011;28;20025;-85
2023/07/19 04:42:50;;;;;;;18.92;8.20;;;;;;;26.29;53.87;100456.22;5048927;28;20028;-83
2023/07/19 04:45:16;;;;;;;14.15;8.00;;;;;;;26.41;53.83;100464.56;5050573;28;20070;-86
2023/07/19 04:47:41;;;;;;;19.58;7.47;;;;;;;26.37;53.34;100439.34;5049878;28;20163;-84
2023/07/19 04:50:09;;;;;;;33.10;8.82;;;;;;;26.56;53.16;100453.94;5050154;28;20416;-83
2023/07/19 04:52:35;;;;;;;16.95;7.47;;;;;;;26.52;52.98;100452.72;5051329;28;20029;-84
2023/07/19 04:55:05;;;;;;;21.42;7.80;;;;;;;26.61;52.84;100444.97;5051227;28;20032;-84
2023/07/19 04:57:31;;;;;;;21.27;8.38;;;;;;;26.74;53.16;100462.19;5050990;28;20075;-84
2023/07/19 04:59:57;;;;;;;32.65;8.77;;;;;;;26.78;52.57;100446.84;5051007;28;20036;-86
2023/07/19 05:02:22;;;;;;;36.80;8.90;;;;;;;26.85;53.13;100457.78;5050712;28;20029;-84
2023/07/19 05:04:48;;;;;;;49.70;10.80;;;;;;;26.93;53.29;100477.66;5050914;28;20162;-85
2023/07/19 05:07:14;;;;;;;36.95;9.60;;;;;;;27.07;53.16;100477.44;5050912;28;20864;-84
2023/07/19 05:09:41;;;;;;;38.33;10.85;;;;;;;27.11;53.80;100485.00;5050236;28;20125;-85
2023/07/19 05:12:08;;;;;;;36.33;11.40;;;;;;;27.12;54.04;100488.63;5051896;28;20032;-84
2023/07/19 05:14:33;;;;;;;25.20;10.13;;;;;;;27.00;54.14;100439.72;5059213;28;20021;-85
2023/07/19 05:16:59;;;;;;;31.60;11.60;;;;;;;27.17;54.22;100469.41;5058452;28;20071;-83
2023/07/19 05:19:24;;;;;;;39.55;11.13;;;;;;;27.28;54.46;100482.41;5057763;28;20024;-85
2023/07/19 05:21:50;;;;;;;43.80;11.85;;;;;;;27.18;54.58;100451.78;5073032;28;20062;-82
2023/07/19 05:24:15;;;;;;;66.63;13.55;;;;;;;27.38;54.61;100472.47;5071329;28;20077;-84
2023/07/19 05:26:41;;;;;;;41.00;10.20;;;;;;;27.36;54.28;100471.03;5070110;28;20032;-85
2023/07/19 05:29:06;;;;;;;48.88;10.00;;;;;;;27.43;54.10;100460.75;5055580;28;20032;-84
2023/07/19 05:31:35;;;;;;;61.58;11.02;;;;;;;27.60;53.93;100461.69;5055366;28;20033;-85
2023/07/19 05:34:00;;;;;;;28.98;9.73;;;;;;;27.74;53.70;100473.34;5054978;28;20104;-84
2023/07/19 05:36:26;;;;;;;31.42;8.98;;;;;;;27.75;53.00;100464.81;5053350;28;20084;-85
2023/07/19 05:38:52;;;;;;;23.38;8.43;;;;;;;27.81;52.74;100463.84;5051551;28;20044;-85
2023/07/19 05:41:17;;;;;;;22.35;8.38;;;;;;;27.93;52.90;100461.06;5050237;28;20404;-85
2023/07/19 05:43:42;;;;;;;29.77;9.32;;;;;;;27.98;52.63;100463.97;5049955;28;20385;-84
2023/07/19 05:46:09;;;;;;;29.13;11.43;;;;;;;28.01;52.46;100452.44;5049420;28;20496;-84
2023/07/19 05:48:35;;;;;;;36.95;10.35;;;;;;;28.16;52.81;100460.25;5048975;28;20060;-85
2023/07/19 05:51:05;;;;;;;34.00;10.15;;;;;;;28.22;52.51;100456.50;5050083;28;20482;-85
2023/07/19 05:53:31;;;;;;;35.53;10.27;;;;;;;28.29;52.58;100443.34;5049551;28;20032;-85
2023/07/19 05:55:56;;;;;;;37.95;10.88;;;;;;;28.42;52.24;100448.63;5049557;28;20033;-84
2023/07/19 05:58:22;;;;;;;41.83;10.25;;;;;;;28.51;51.96;100447.13;5049678;28;20037;-84
2023/07/19 06:00:48;;;;;;;35.10;11.52;;;;;;;28.56;52.24;100436.19;5048444;28;20396;-86
2023/07/19 06:03:16;;;;;;;29.92;10.20;;;;;;;28.68;51.86;100441.69;5057746;28;20029;-85
2023/07/19 06:05:43;;;;;;;22.38;8.70;;;;;;;28.69;51.13;100435.91;5052340;28;20114;-84
2023/07/19 06:08:09;;;;;;;22.98;8.68;;;;;;;28.74;50.85;100440.72;5049205;28;20025;-84
2023/07/19 06:10:35;;;;;;;24.42;8.85;;;;;;;28.77;50.43;100427.22;5048773;28;20033;-85
2023/07/19 06:13:00;;;;;;;14.32;8.55;;;;;;;28.70;50.51;100415.44;5049198;28;20025;-84
2023/07/19 06:15:26;;;;;;;31.90;9.40;;;;;;;28.83;50.50;100428.13;5048227;28;20033;-85
2023/07/19 06:17:52;;;;;;;20.90;10.18;;;;;;;28.92;50.58;100433.03;5048517;28;20108;-85
2023/07/19 06:20:17;;;;;;;27.30;10.50;;;;;;;29.07;50.07;100430.53;5080704;28;20128;-85
2023/07/19 06:22:43;;;;;;;55.70;14.75;;;;;;;29.15;49.50;100421.78;5048902;28;20049;-85
2023/07/19 06:25:09;;;;;;;20.38;10.60;;;;;;;29.29;49.45;100427.03;5080536;28;20108;-85
2023/07/19 06:27:35;;;;;;;27.27;10.73;;;;;;;29.29;49.45;100421.50;5056323;28;20079;-85
2023/07/19 06:30:00;;;;;;;13.00;7.47;;;;;;;29.35;49.04;100409.41;5052618;28;20033;-85
2023/07/19 06:32:26;;;;;;;57.40;10.80;;;;;;;29.38;49.52;100409.75;5048743;28;20029;-85
2023/07/19 06:34:51;;;;;;;26.50;10.52;;;;;;;29.56;49.74;100420.56;5049303;28;20057;-85
2023/07/19 06:37:17;;;;;;;33.45;10.52;;;;;;;29.54;49.83;100402.50;5048043;28;20071;-85
2023/07/19 06:39:42;;;;;;;17.85;10.10;;;;;;;29.57;49.50;100404.75;5048733;28;20025;-85
2023/07/19 06:42:08;;;;;;;34.25;9.30;;;;;;;29.59;49.19;100405.34;5048719;28;20029;-84
2023/07/19 06:44:35;;;;;;;27.13;10.20;;;;;;;29.66;49.05;100411.56;5051070;28;20025;-85
2023/07/19 06:47:03;;;;;;;19.02;9.07;;;;;;;29.69;49.37;100420.16;5052423;28;20417;-86
2023/07/19 06:49:28;;;;;;;20.83;9.80;;;;;;;29.70;49.23;100410.78;5052250;28;20037;-86
2023/07/19 06:51:53;;;;;;;26.15;9.57;;;;;;;29.74;48.79;100413.03;5052166;28;20025;-85
2023/07/19 06:54:19;;;;;;;29.30;9.90;;;;;;;29.76;48.21;100420.00;5052558;28;20029;-86
2023/07/19 06:56:44;;;;;;;18.52;9.05;;;;;;;29.80;48.32;100420.31;5052251;28;20493;-85
2023/07/19 06:59:10;;;;;;;20.58;9.18;;;;;;;29.87;48.38;100413.56;5051642;28;20124;-85
2023/07/19 07:01:35;;;;;;;20.10;9.30;;;;;;;29.96;48.29;100420.31;5050257;28;20048;-85
2023/07/19 07:04:01;;;;;;;17.67;8.80;;;;;;;30.01;48.20;100414.84;5051805;28;20041;-84
2023/07/19 07:06:27;;;;;;;20.75;9.85;;;;;;;30.04;48.14;100397.69;5052459;28;20489;-84
2023/07/19 07:08:52;;;;;;;34.10;9.43;;;;;;;30.20;48.04;100407.88;5051891;28;20051;-84
2023/07/19 07:11:18;;;;;;;27.63;8.73;;;;;;;30.28;47.79;100412.13;5051884;28;20036;-85
2023/07/19 07:13:43;;;;;;;19.88;9.75;;;;;;;30.27;47.65;100402.13;5051862;28;20043;-84
2023/07/19 07:16:09;;;;;;;17.90;8.52;;;;;;;30.26;47.55;100394.06;5051849;28;20021;-83
2023/07/19 07:18:35;;;;;;;22.42;8.60;;;;;;;30.39;47.21;100394.53;5051683;28;20029;-84
2023/07/19 07:21:00;;;;;;;28.35;8.32;;;;;;;30.45;46.87;100399.06;5051932;28;20490;-85
2023/07/19 07:23:26;;;;;;;13.77;8.15;;;;;;;30.54;46.89;100391.09;5051814;28;20481;-85
2023/07/19 07:25:54;;;;;;;31.95;9.30;;;;;;;30.65;46.44;100401.19;5051882;28;20029;-85
2023/07/19 07:28:20;;;;;;;14.77;8.48;;;;;;;30.65;46.00;100403.97;5051836;28;20615;-84
2023/07/19 07:30:46;;;;;;;20.10;8.35;;;;;;;30.69;46.26;100396.78;5051656;28;20133;-86
2023/07/19 07:33:11;;;;;;;22.65;10.18;;;;;;;30.78;46.31;100403.56;5052111;28;20033;-85
2023/07/19 07:35:37;;;;;;;17.08;8.40;;;;;;;30.84;45.86;100402.50;5051856;28;20029;-85
2023/07/19 07:38:03;;;;;;;26.95;9.50;;;;;;;30.92;46.00;100403.94;5051396;28;20507;-86
2023/07/19 07:40:29;;;;;;;18.02;9.50;;;;;;;30.99;45.45;100405.44;5051699;28;20029;-85
2023/07/19 07:42:54;;;;;;;12.50;8.77;;;;;;;31.07;45.40;100407.72;5051427;28;20036;-86
2023/07/19 07:45:19;;;;;;;19.77;9.20;;;;;;;31.12;45.07;100393.91;5051330;28;20025;-86
2023/07/19 07:47:45;;;;;;;21.85;9.23;;;;;;;31.16;45.71;100394.22;5050072;28;20036;-85
2023/07/19 07:50:10;;;;;;;28.60;8.93;;;;;;;31.31;46.58;100402.66;5051660;28;20120;-85
2023/07/19 07:52:36;;;;;;;32.03;8.73;;;;;;;31.26;46.97;100395.13;5051216;28;20468;-84
2023/07/19 07:55:05;;;;;;;18.95;8.55;;;;;;;31.44;46.93;100406.91;5050584;28;20091;-85
2023/07/19 07:57:33;;;;;;;22.10;8.68;;;;;;;31.46;46.65;100404.72;5050747;28;20086;-85
2023/07/19 07:59:59;;;;;;;30.65;9.13;;;;;;;31.39;47.36;100384.63;5049825;28;20036;-86
2023/07/19 08:02:24;;;;;;;20.25;9.05;;;;;;;31.42;48.11;100392.44;5051325;28;20021;-86
2023/07/19 08:04:52;;;;;;;26.85;8.45;;;;;;;31.41;48.42;100396.31;5051254;28;20024;-85
2023/07/19 08:07:18;;;;;;;20.58;7.95;;;;;;;31.28;47.67;100390.13;5051275;28;20029;-85
2023/07/19 08:09:43;;;;;;;19.55;8.25;;;;;;;31.31;47.53;100407.38;5050650;28;20119;-85
2023/07/19 08:12:09;;;;;;;29.45;8.43;;;;;;;31.17;49.68;100407.81;5051204;28;20104;-86
2023/07/19 08:14:36;;;;;;;47.42;11.40;;;;;;;31.01;50.34;100383.78;5049444;28;20032;-84
2023/07/19 08:17:02;;;;;;;27.83;9.10;;;;;;;31.10;50.05;100398.88;5050925;28;20488;-86
2023/07/19 08:19:27;;;;;;;16.38;8.05;;;;;;;31.18;49.45;100384.50;5051524;28;20083;-86
2023/07/19 08:21:53;;;;;;;22.55;8.63;;;;;;;31.03;49.75;100383.53;5051088;28;20021;-85
2023/07/19 08:24:18;;;;;;;21.77;8.23;;;;;;;31.13;49.65;100395.56;5053478;28;20036;-82
2023/07/19 08:26:44;;;;;;;17.70;7.05;;;;;;;31.05;49.81;100398.00;5051389;28;20033;-84
2023/07/19 08:29:10;;;;;;;15.25;7.72;;;;;;;31.04;49.69;100390.78;5048266;28;20041;-85
2023/07/19 08:31:36;;;;;;;20.17;8.10;;;;;;;31.02;50.52;100388.25;5048304;28;20036;-85
2023/07/19 08:34:02;;;;;;;29.90;10.77;;;;;;;31.15;50.68;100404.50;5048504;28;20044;-86
2023/07/19 08:36:27;;;;;;;30.85;8.50;;;;;;;30.86;51.25;100405.00;5053157;28;20057;-83
2023/07/19 08:38:53;;;;;;;25.88;8.57;;;;;;;30.94;50.95;100398.97;5060323;28;20029;-83
2023/07/19 08:41:24;;;;;;;15.65;9.07;;;;;;;30.67;49.91;100371.25;5035127;28;20072;-85
2023/07/19 08:43:51;;;;;;;20.42;8.13;;;;;;;30.79;50.35;100383.03;5049105;28;20068;-85
2023/07/19 08:46:16;;;;;;;16.67;8.23;;;;;;;30.84;50.94;100390.53;5031814;28;20037;-87
2023/07/19 08:48:49;;;;;;;19.00;8.45;;;;;;;30.81;50.48;100379.97;5048003;28;20505;-86
2023/07/19 08:51:16;;;;;;;20.42;8.10;;;;;;;30.82;50.94;100388.03;5047756;28;20048;-85
2023/07/19 08:53:41;;;;;;;33.63;8.98;;;;;;;30.87;50.50;100388.09;5047368;28;20090;-85
2023/07/19 08:56:07;;;;;;;17.75;8.02;;;;;;;30.70;50.59;100395.72;5048271;28;20497;-85
2023/07/19 08:58:43;;;;;;;16.77;7.90;;;;;;;30.61;50.36;100386.19;5031222;28;20029;-85
2023/07/19 09:01:09;;;;;;;23.85;8.15;;;;;;;30.23;50.56;100374.06;5052681;28;20061;-84
2023/07/19 09:03:35;;;;;;;16.45;9.70;;;;;;;30.24;50.09;100384.03;5058206;28;20481;-84
2023/07/19 09:06:01;;;;;;;29.27;8.13;;;;;;;30.29;50.46;100393.53;5051335;28;20027;-86
2023/07/19 09:08:36;;;;;;;22.08;8.68;;;;;;;30.44;50.51;100404.84;5050211;28;20025;-87
2023/07/19 09:11:02;;;;;;;20.73;7.70;;;;;;;30.35;50.31;100403.59;5050251;28;20456;-84
2023/07/19 09:13:31;;;;;;;28.95;8.10;;;;;;;30.21;50.47;100383.75;5050866;28;20117;-85
2023/07/19 09:15:57;;;;;;;29.77;8.30;;;;;;;30.22;49.85;100388.19;5049105;28;20497;-84
2023/07/19 09:18:29;;;;;;;25.10;7.72;;;;;;;30.24;48.61;100375.72;5049439;28;20029;-86
2023/07/19 09:20:58;;;;;;;17.08;7.78;;;;;;;30.33;49.27;100383.59;5050139;28;20038;-85
2023/07/19 09:23:24;;;;;;;26.77;8.40;;;;;;;30.50;48.91;100392.69;5049350;28;20068;-86
2023/07/19 09:25:51;;;;;;;16.00;8.32;;;;;;;30.62;48.57;100385.06;5049533;28;20067;-86
2023/07/19 09:28:21;;;;;;;23.15;8.25;;;;;;;30.67;48.96;100385.13;5049801;28;20025;-85
2023/07/19 09:31:14;;;;;;;23.33;8.10;;;;;;;30.85;47.46;100384.75;5049361;28;20033;-86
2023/07/19 09:33:41;;;;;;;16.17;8.85;;;;;;;30.66;47.39;100372.31;5047588;28;20072;-86
2023/07/19 09:36:07;;;;;;;17.92;7.85;;;;;;;30.69;45.74;100382.91;5047470;28;20437;-86
2023/07/19 09:38:32;;;;;;;27.55;8.77;;;;;;;30.63;45.42;100383.97;5047696;28;20036;-85
2023/07/19 09:40:58;;;;;;;18.25;8.27;;;;;;;30.73;44.65;100378.53;5047707;28;20497;-86
2023/07/19 09:43:24;;;;;;;25.13;7.97;;;;;;;30.85;43.94;100386.69;5047765;28;20254;-84
2023/07/19 09:45:51;;;;;;;29.65;8.57;;;;;;;30.74;43.30;100369.06;5047337;28;20559;-86
2023/07/19 09:48:18;;;;;;;20.90;6.88;;;;;;;30.56;43.37;100364.72;5047262;28;20035;-85
2023/07/19 09:50:47;;;;;;;27.38;7.32;;;;;;;30.53;44.59;100361.63;5046879;28;20312;-86
2023/07/19 09:53:13;;;;;;;23.23;6.85;;;;;;;30.64;45.09;100358.69;5046844;28;20463;-85
2023/07/19 09:55:40;;;;;;;20.75;8.07;;;;;;;30.83;44.52;100367.47;5046690;28;20516;-85
2023/07/19 09:58:13;;;;;;;30.58;10.05;;;;;;;30.92;45.48;100373.38;5048040;28;20044;-86
2023/07/19 10:00:39;;;;;;;16.80;7.10;;;;;;;30.86;46.45;100374.44;5033325;28;20041;-86
2023/07/19 10:03:08;;;;;;;12.93;7.25;;;;;;;30.75;47.13;100366.03;5050733;28;20513;-85
2023/07/19 10:05:34;;;;;;;21.33;7.95;;;;;;;30.84;48.26;100363.63;5058377;28;20505;-86
2023/07/19 10:08:06;;;;;;;23.92;6.97;;;;;;;30.81;49.02;100364.13;5068775;28;20108;-87
2023/07/19 10:10:58;;;;;;;25.20;7.15;;;;;;;30.78;48.82;100353.56;5069176;28;20041;-85
2023/07/19 10:13:31;;;;;;;14.50;7.57;;;;;;;30.76;47.73;100355.78;5061367;28;20028;-85
2023/07/19 10:15:56;;;;;;;18.10;6.95;;;;;;;30.80;46.86;100354.13;5054072;28;20041;-85
2023/07/19 10:18:21;;;;;;;21.73;7.40;;;;;;;30.72;46.16;100346.28;5059575;28;20021;-85
2023/07/19 10:21:01;;;;;;;24.33;10.77;;;;;;;30.75;46.62;100342.97;5059692;28;20040;-85
2023/07/19 10:23:30;;;;;;;22.13;7.88;;;;;;;30.89;46.81;100360.88;5054794;28;20021;-86
2023/07/19 10:25:56;;;;;;;20.75;6.68;;;;;;;31.00;46.65;100346.00;5053203;28;20036;-86
2023/07/19 10:28:26;;;;;;;9.65;7.28;;;;;;;30.97;48.02;100341.00;5052841;28;20036;-86
2023/07/19 10:30:54;;;;;;;22.15;7.60;;;;;;;30.98;47.21;100347.34;5052090;28;20040;-88
2023/07/19 10:33:28;;;;;;;15.55;7.40;;;;;;;31.04;46.67;100341.59;5053298;28;20029;-87
2023/07/19 10:36:14;;;;;;;23.67;7.03;;;;;;;31.01;47.31;100347.66;5053405;28;20049;-85
2023/07/19 10:38:40;;;;;;;25.73;8.98;;;;;;;31.02;48.23;100345.72;5050903;28;20107;-85
2023/07/19 10:41:07;;;;;;;16.17;6.07;;;;;;;31.01;48.68;100347.66;5052599;28;20017;-86
2023/07/19 10:43:35;;;;;;;20.08;7.15;;;;;;;31.12;48.27;100351.38;5052600;28;20032;-85
2023/07/19 10:46:04;;;;;;;24.95;8.00;;;;;;;31.03;47.82;100327.97;5051397;28;20528;-86
2023/07/19 10:48:33;;;;;;;14.50;7.63;;;;;;;30.96;46.25;100319.84;5052557;28;20032;-86
2023/07/19 10:51:04;;;;;;;27.85;8.70;;;;;;;31.12;46.99;100321.66;5053053;28;20029;-86
2023/07/19 10:53:40;;;;;;;24.00;7.63;;;;;;;31.38;46.64;100322.63;5053218;28;20112;-86
2023/07/19 10:56:06;;;;;;;51.08;9.30;;;;;;;31.49;47.31;100312.47;5051601;28;20393;-86
2023/07/19 10:58:31;;;;;;;20.83;6.88;;;;;;;31.66;46.64;100321.44;5052811;28;20044;-86
2023/07/19 11:00:57;;;;;;;18.85;7.63;;;;;;;31.68;45.86;100299.78;5052078;28;20024;-86
2023/07/19 11:03:26;;;;;;;14.48;6.60;;;;;;;31.45;46.49;100298.22;5052029;28;20489;-85
2023/07/19 11:05:53;;;;;;;22.35;6.63;;;;;;;31.69;45.67;100301.44;5052833;28;20021;-87
2023/07/19 11:08:29;;;;;;;12.38;6.88;;;;;;;31.58;47.28;100295.00;5052482;28;20028;-86
2023/07/19 11:10:56;;;;;;;16.65;7.22;;;;;;;31.52;48.02;100317.47;5053595;28;20040;-85
2023/07/19 11:13:26;;;;;;;12.98;6.90;;;;;;;31.45;48.89;100302.94;5056208;28;20021;-84